Time;durP1;ratioP1;P1;durP2;ratioP2;P2;SDS_P1;SDS_P2;PMS_P1;PMS_P2;Temp;Humidity;BMP_temperature;BMP_pressure;BME280_temperature;BME280_humidity;BME280_pressure;Samples;Min_cycle;Max_cycle;Signal;HPM_P1;HPM_P2
2024/01/10 00:00:52;;;;;;;11.05;7.30;;;;;;;;;;5036724;28;20414;-59
2024/01/10 00:03:18;;;;;;;9.93;7.22;;;;;;;;;;5034265;28;20044;-59
2024/01/10 00:05:44;;;;;;;9.48;7.28;;;;;;;;;;5036220;28;20122;-59
2024/01/10 00:08:10;;;;;;;10.27;7.43;;;;;;;;;;5035176;28;20056;-59
2024/01/10 00:10:36;;;;;;;10.77;7.30;;;;;;;;;;5033175;28;20036;-58
2024/01/10 00:13:02;;;;;;;9.80;6.97;;;;;;;;;;5018068;28;20064;-58
2024/01/10 00:15:28;;;;;;;9.63;6.85;;;;;;;;;;5039937;28;20083;-58
2024/01/10 00:17:54;;;;;;;8.77;6.70;;;;;;;;;;5038015;28;20087;-59
2024/01/10 00:20:20;;;;;;;10.25;6.75;;;;;;;;;;5037086;28;20605;-59
2024/01/10 00:22:46;;;;;;;10.13;6.85;;;;;;;;;;5041554;28;20124;-58
2024/01/10 00:25:12;;;;;;;10.82;6.70;;;;;;;;;;5036699;28;20034;-59
2024/01/10 00:27:38;;;;;;;9.63;6.88;;;;;;;;;;5039698;28;20465;-57
2024/01/10 00:30:05;;;;;;;9.88;6.32;;;;;;;;;;5040163;28;20033;-59
2024/01/10 00:32:31;;;;;;;8.35;5.63;;;;;;;;;;5036251;28;20090;-59
2024/01/10 00:34:57;;;;;;;6.35;5.30;;;;;;;;;;5038708;28;20041;-59
2024/01/10 00:37:23;;;;;;;8.00;5.82;;;;;;;;;;5036043;28;20052;-59
2024/01/10 00:39:49;;;;;;;8.68;6.13;;;;;;;;;;5036804;28;20048;-59
2024/01/10 00:42:15;;;;;;;7.82;5.80;;;;;;;;;;5037712;28;20402;-58
2024/01/10 00:44:41;;;;;;;8.90;6.10;;;;;;;;;;5036365;28;20113;-59
2024/01/10 00:47:07;;;;;;;8.88;6.53;;;;;;;;;;5033632;28;20048;-59
2024/01/10 00:49:33;;;;;;;9.02;6.78;;;;;;;;;;5034251;28;20045;-59
2024/01/10 00:51:59;;;;;;;9.20;6.38;;;;;;;;;;5020050;28;20822;-59
2024/01/10 00:54:25;;;;;;;8.52;6.32;;;;;;;;;;5036683;28;20494;-59
2024/01/10 00:56:51;;;;;;;8.80;6.32;;;;;;;;;;5038687;28;20072;-58
2024/01/10 00:59:17;;;;;;;9.10;6.50;;;;;;;;;;5037637;28;20069;-59
2024/01/10 01:01:43;;;;;;;8.35;6.47;;;;;;;;;;5037735;28;20571;-59
2024/01/10 01:04:09;;;;;;;9.00;6.32;;;;;;;;;;5038212;28;20045;-59
2024/01/10 01:06:34;;;;;;;9.85;7.38;;;;;;;;;;5036891;28;20465;-59
2024/01/10 01:09:00;;;;;;;11.02;8.32;;;;;;;;;;5034518;28;20053;-59
2024/01/10 01:11:26;;;;;;;12.38;8.65;;;;;;;;;;5038083;28;20483;-59
2024/01/10 01:13:53;;;;;;;11.35;8.60;;;;;;;;;;5038963;28;20037;-58
2024/01/10 01:16:19;;;;;;;13.15;9.35;;;;;;;;;;5040997;28;20095;-58
2024/01/10 01:18:45;;;;;;;12.30;8.00;;;;;;;;;;5036993;28;20094;-59
2024/01/10 01:21:11;;;;;;;11.65;8.57;;;;;;;;;;5038994;28;20203;-59
2024/01/10 01:23:37;;;;;;;11.93;8.80;;;;;;;;;;5037113;28;21013;-59
2024/01/10 01:26:03;;;;;;;12.48;8.50;;;;;;;;;;5036766;28;20040;-59
2024/01/10 01:28:30;;;;;;;14.93;9.95;;;;;;;;;;5036872;28;20041;-59
2024/01/10 01:30:56;;;;;;;16.45;10.25;;;;;;;;;;5037611;28;20056;-59
2024/01/10 01:33:22;;;;;;;13.15;9.13;;;;;;;;;;5038362;28;20041;-59
2024/01/10 01:35:48;;;;;;;16.25;10.68;;;;;;;;;;5035040;28;20052;-58
2024/01/10 01:38:14;;;;;;;16.92;11.40;;;;;;;;;;5036966;28;20683;-58
2024/01/10 01:40:40;;;;;;;16.67;11.43;;;;;;;;;;5038272;28;20049;-59
2024/01/10 01:43:22;;;;;;;17.02;11.20;;;;;;;;;;5035795;28;20045;-59
2024/01/10 01:45:53;;;;;;;16.73;10.98;;;;;;;;;;5035534;28;20069;-59
2024/01/10 01:48:20;;;;;;;15.88;11.05;;;;;;;;;;5036877;28;20038;-59
2024/01/10 01:50:47;;;;;;;20.25;12.43;;;;;;;;;;5034231;28;20041;-59
2024/01/10 01:53:14;;;;;;;18.40;12.45;;;;;;;;;;5034876;28;20072;-59
2024/01/10 01:55:40;;;;;;;16.90;11.45;;;;;;;;;;5037249;28;20046;-59
2024/01/10 01:58:07;;;;;;;17.73;12.07;;;;;;;;;;5034395;28;20041;-59
2024/01/10 02:00:34;;;;;;;17.23;11.75;;;;;;;;;;5033514;28;20042;-59
2024/01/10 02:03:00;;;;;;;22.10;13.38;;;;;;;;;;5034185;28;20091;-59
2024/01/10 02:05:26;;;;;;;19.05;12.70;;;;;;;;;;5034520;28;20116;-59
2024/01/10 02:07:52;;;;;;;19.40;12.43;;;;;;;;;;5037852;28;20049;-59
2024/01/10 02:10:19;;;;;;;20.10;12.93;;;;;;;;;;5035545;28;20060;-57
2024/01/10 02:12:46;;;;;;;21.33;13.15;;;;;;;;;;5037096;28;20040;-59
2024/01/10 02:15:12;;;;;;;21.05;14.40;;;;;;;;;;5031703;28;20042;-59
2024/01/10 02:17:38;;;;;;;21.48;14.43;;;;;;;;;;5035384;28;20487;-59
2024/01/10 02:20:11;;;;;;;19.33;13.07;;;;;;;;;;5036751;28;20095;-58
2024/01/10 02:22:37;;;;;;;22.65;15.43;;;;;;;;;;5036081;28;20032;-59
2024/01/10 02:25:04;;;;;;;23.48;14.75;;;;;;;;;;5038096;28;20047;-59
2024/01/10 02:27:31;;;;;;;19.85;13.45;;;;;;;;;;5034891;28;20050;-58
2024/01/10 02:29:57;;;;;;;20.83;13.73;;;;;;;;;;5038807;28;20121;-59
2024/01/10 02:32:23;;;;;;;20.13;13.00;;;;;;;;;;5038665;28;20063;-58
2024/01/10 02:34:49;;;;;;;24.50;14.68;;;;;;;;;;5034282;28;20136;-59
2024/01/10 02:37:15;;;;;;;21.42;14.32;;;;;;;;;;5034751;28;20049;-59
2024/01/10 02:39:41;;;;;;;23.70;16.00;;;;;;;;;;5037434;28;20379;-59
2024/01/10 02:42:07;;;;;;;19.00;13.00;;;;;;;;;;5038876;28;20128;-59
2024/01/10 02:44:33;;;;;;;21.58;14.02;;;;;;;;;;5031147;28;20037;-59
2024/01/10 02:46:59;;;;;;;19.40;12.68;;;;;;;;;;5033414;28;20461;-59
2024/01/10 02:49:25;;;;;;;20.55;14.38;;;;;;;;;;5033813;28;20072;-59
2024/01/10 02:51:51;;;;;;;17.20;12.23;;;;;;;;;;5036129;28;20379;-59
2024/01/10 02:54:17;;;;;;;19.88;13.32;;;;;;;;;;5035555;28;20045;-58
2024/01/10 02:56:43;;;;;;;20.23;12.82;;;;;;;;;;5034770;28;21010;-59
2024/01/10 02:59:09;;;;;;;22.33;15.02;;;;;;;;;;5035148;28;20049;-58
2024/01/10 03:01:35;;;;;;;21.67;14.05;;;;;;;;;;5031480;28;20046;-58
2024/01/10 03:04:01;;;;;;;21.55;14.35;;;;;;;;;;5038855;28;20048;-58
2024/01/10 03:06:27;;;;;;;21.35;13.38;;;;;;;;;;5035724;28;20045;-58
2024/01/10 03:08:55;;;;;;;22.80;13.80;;;;;;;;;;5037181;28;20060;-58
2024/01/10 03:11:21;;;;;;;19.13;12.48;;;;;;;;;;5036210;28;20128;-59
2024/01/10 03:13:47;;;;;;;19.83;13.32;;;;;;;;;;5038035;28;20716;-59
2024/01/10 03:16:14;;;;;;;19.83;13.18;;;;;;;;;;5037072;28;20048;-58
2024/01/10 03:18:40;;;;;;;20.50;13.98;;;;;;;;;;5041360;28;20418;-59
2024/01/10 03:21:06;;;;;;;20.23;13.85;;;;;;;;;;5036746;28;20040;-59
2024/01/10 03:23:32;;;;;;;18.58;13.05;;;;;;;;;;5036063;28;20564;-58
2024/01/10 03:25:58;;;;;;;19.50;12.30;;;;;;;;;;5036306;28;20041;-59
2024/01/10 03:28:24;;;;;;;19.05;12.85;;;;;;;;;;5035065;28;20152;-59
2024/01/10 03:30:51;;;;;;;22.35;14.02;;;;;;;;;;5036907;28;20088;-59
2024/01/10 03:33:17;;;;;;;20.52;12.75;;;;;;;;;;5035878;28;20076;-59
2024/01/10 03:35:43;;;;;;;20.05;14.15;;;;;;;;;;5033398;28;20138;-59
2024/01/10 03:38:09;;;;;;;19.90;13.25;;;;;;;;;;5037594;28;20033;-59
2024/01/10 03:40:35;;;;;;;21.10;13.57;;;;;;;;;;5036800;28;20060;-60
2024/01/10 03:43:01;;;;;;;21.58;14.10;;;;;;;;;;5032161;28;20033;-59
2024/01/10 03:45:27;;;;;;;21.60;13.77;;;;;;;;;;5034191;28;20047;-58
2024/01/10 03:47:53;;;;;;;19.38;12.50;;;;;;;;;;5035485;28;20134;-59
2024/01/10 03:50:20;;;;;;;19.10;11.60;;;;;;;;;;5037939;28;20068;-59
2024/01/10 03:52:46;;;;;;;19.08;13.07;;;;;;;;;;5041117;28;20126;-59
2024/01/10 03:55:13;;;;;;;23.08;13.90;;;;;;;;;;5039631;28;20580;-59
2024/01/10 03:57:42;;;;;;;21.83;14.52;;;;;;;;;;5036688;28;20150;-59
2024/01/10 04:00:09;;;;;;;20.55;13.95;;;;;;;;;;5038195;28;20064;-59
2024/01/10 04:02:37;;;;;;;19.65;13.27;;;;;;;;;;5042051;28;21069;-58
2024/01/10 04:05:03;;;;;;;21.20;13.55;;;;;;;;;;5040097;28;20517;-59
2024/01/10 04:07:29;;;;;;;19.98;13.15;;;;;;;;;;5041019;28;20065;-59
2024/01/10 04:09:55;;;;;;;20.23;13.90;;;;;;;;;;5040778;28;20529;-59
2024/01/10 04:12:21;;;;;;;19.48;12.85;;;;;;;;;;5041883;28;20068;-58
2024/01/10 04:14:47;;;;;;;23.35;13.80;;;;;;;;;;5042134;28;20076;-58
2024/01/10 04:17:13;;;;;;;18.27;12.13;;;;;;;;;;5036510;28;20036;-59
2024/01/10 04:19:39;;;;;;;18.67;12.65;;;;;;;;;;5038662;28;20047;-59
2024/01/10 04:22:05;;;;;;;19.15;13.13;;;;;;;;;;5038753;28;20048;-59
2024/01/10 04:24:31;;;;;;;18.42;12.48;;;;;;;;;;5033841;28;20045;-58
2024/01/10 04:26:57;;;;;;;20.45;13.68;;;;;;;;;;5036374;28;20079;-58
2024/01/10 04:29:23;;;;;;;19.02;13.25;;;;;;;;;;5038934;28;20715;-58
2024/01/10 04:31:49;;;;;;;17.90;11.80;;;;;;;;;;5035639;28;20029;-59
2024/01/10 04:34:15;;;;;;;17.25;10.95;;;;;;;;;;5036447;28;20694;-58
2024/01/10 04:36:41;;;;;;;21.65;14.25;;;;;;;;;;5037851;28;20053;-58
2024/01/10 04:39:07;;;;;;;23.73;14.80;;;;;;;;;;5034126;28;20547;-59
2024/01/10 04:41:33;;;;;;;28.63;17.17;;;;;;;;;;5037141;28;20041;-58
2024/01/10 04:43:59;;;;;;;22.75;14.93;;;;;;;;;;5034700;28;20170;-59
2024/01/10 04:46:25;;;;;;;22.40;14.50;;;;;;;;;;5035545;28;20041;-58
2024/01/10 04:48:51;;;;;;;23.67;14.27;;;;;;;;;;5038345;28;20042;-59
2024/01/10 04:51:17;;;;;;;23.55;15.00;;;;;;;;;;5036090;28;20048;-58
2024/01/10 04:53:43;;;;;;;22.52;15.30;;;;;;;;;;5034783;28;20064;-59
2024/01/10 04:56:09;;;;;;;22.33;15.70;;;;;;;;;;5034552;28;20522;-59
2024/01/10 04:58:36;;;;;;;26.40;16.05;;;;;;;;;;5033390;28;20041;-59
2024/01/10 05:01:02;;;;;;;26.05;15.90;;;;;;;;;;5031265;28;20049;-58
2024/01/10 05:03:28;;;;;;;23.17;14.73;;;;;;;;;;5031810;28;20678;-59
2024/01/10 05:05:54;;;;;;;21.60;13.45;;;;;;;;;;5036276;28;20045;-59
2024/01/10 05:08:20;;;;;;;19.70;13.50;;;;;;;;;;5034309;28;20079;-58
2024/01/10 05:10:46;;;;;;;19.83;14.55;;;;;;;;;;5031233;28;20441;-58
2024/01/10 05:13:13;;;;;;;21.25;14.05;;;;;;;;;;5031094;28;20629;-58
2024/01/10 05:15:39;;;;;;;20.45;13.18;;;;;;;;;;5033875;28;20032;-58
2024/01/10 05:18:05;;;;;;;17.73;12.40;;;;;;;;;;5034741;28;20038;-58
2024/01/10 05:20:31;;;;;;;19.38;12.68;;;;;;;;;;5034290;28;20036;-58
2024/01/10 05:22:58;;;;;;;17.35;11.70;;;;;;;;;;5032335;28;20045;-59
2024/01/10 05:25:25;;;;;;;19.73;13.00;;;;;;;;;;5033122;28;20167;-58
2024/01/10 05:27:50;;;;;;;23.10;14.63;;;;;;;;;;5019297;28;20089;-58
2024/01/10 05:30:17;;;;;;;21.48;14.20;;;;;;;;;;5032198;28;20045;-58
2024/01/10 05:32:44;;;;;;;18.50;12.85;;;;;;;;;;5018824;28;20045;-59
2024/01/10 05:35:10;;;;;;;16.90;11.90;;;;;;;;;;5031580;28;20107;-58
2024/01/10 05:37:36;;;;;;;20.77;12.13;;;;;;;;;;5038529;28;20033;-58
2024/01/10 05:40:04;;;;;;;16.33;11.32;;;;;;;;;;5034259;28;20505;-58
2024/01/10 05:42:32;;;;;;;18.30;12.18;;;;;;;;;;5034339;28;20074;-59
2024/01/10 05:44:58;;;;;;;17.23;11.70;;;;;;;;;;5032650;28;20040;-59
2024/01/10 05:47:25;;;;;;;19.63;13.18;;;;;;;;;;5032656;28;20037;-58
2024/01/10 05:49:52;;;;;;;22.20;14.10;;;;;;;;;;5036533;28;20043;-58
2024/01/10 05:52:19;;;;;;;19.08;13.25;;;;;;;;;;5034352;28;20045;-58
2024/01/10 05:54:45;;;;;;;18.52;12.10;;;;;;;;;;5035037;28;20045;-58
2024/01/10 05:57:11;;;;;;;19.75;13.30;;;;;;;;;;5029837;28;20049;-59
2024/01/10 05:59:37;;;;;;;21.23;14.38;;;;;;;;;;5034403;28;20041;-58
2024/01/10 06:02:04;;;;;;;18.33;13.27;;;;;;;;;;5034074;28;20487;-58
2024/01/10 06:04:31;;;;;;;23.30;14.77;;;;;;;;;;5032672;28;20136;-59
2024/01/10 06:07:00;;;;;;;20.17;13.95;;;;;;;;;;5032572;28;20496;-59
2024/01/10 06:09:26;;;;;;;22.70;15.07;;;;;;;;;;5031274;28;20045;-58
2024/01/10 06:11:53;;;;;;;23.13;14.50;;;;;;;;;;5032928;28;20037;-58
2024/01/10 06:14:19;;;;;;;24.20;14.57;;;;;;;;;;5032064;28;20051;-59
2024/01/10 06:16:45;;;;;;;19.92;13.13;;;;;;;;;;5032352;28;20045;-58
2024/01/10 06:19:11;;;;;;;19.65;13.05;;;;;;;;;;5030641;28;20033;-59
2024/01/10 06:21:37;;;;;;;21.35;13.82;;;;;;;;;;5030657;28;20633;-59
2024/01/10 06:24:04;;;;;;;22.92;15.07;;;;;;;;;;5030299;28;20075;-59
2024/01/10 06:26:30;;;;;;;18.25;12.60;;;;;;;;;;5034888;28;20041;-59
2024/01/10 06:28:56;;;;;;;17.85;12.02;;;;;;;;;;5031495;28;20045;-59
2024/01/10 06:31:23;;;;;;;19.30;12.95;;;;;;;;;;5029780;28;20552;-59
2024/01/10 06:33:49;;;;;;;17.13;11.65;;;;;;;;;;5031317;28;20506;-59
2024/01/10 06:36:15;;;;;;;14.65;11.15;;;;;;;;;;5034501;28;20030;-58
2024/01/10 06:38:41;;;;;;;21.05;13.32;;;;;;;;;;5035311;28;20838;-58
2024/01/10 06:41:08;;;;;;;19.13;12.32;;;;;;;;;;5034862;28;20041;-58
2024/01/10 06:43:34;;;;;;;16.55;11.45;;;;;;;;;;5035367;28;20045;-58
2024/01/10 06:46:00;;;;;;;18.17;12.02;;;;;;;;;;5036994;28;20091;-58
2024/01/10 06:48:26;;;;;;;20.45;13.32;;;;;;;;;;5034520;28;20049;-58
2024/01/10 06:50:52;;;;;;;20.55;13.43;;;;;;;;;;5034477;28;20083;-59
2024/01/10 06:53:18;;;;;;;19.95;13.55;;;;;;;;;;5030661;28;20080;-59
2024/01/10 06:55:44;;;;;;;20.15;13.40;;;;;;;;;;5033786;28;20077;-59
2024/01/10 06:58:10;;;;;;;21.42;14.20;;;;;;;;;;5032743;28;20399;-58
2024/01/10 07:00:38;;;;;;;23.58;15.38;;;;;;;;;;5014069;28;20041;-57
2024/01/10 07:03:04;;;;;;;23.17;15.25;;;;;;;;;;5032567;28;20494;-58
2024/01/10 07:05:31;;;;;;;23.40;15.82;;;;;;;;;;5031995;28;20041;-59
2024/01/10 07:07:58;;;;;;;22.98;15.75;;;;;;;;;;5032603;28;20061;-59
2024/01/10 07:10:27;;;;;;;20.45;14.18;;;;;;;;;;5033605;28;20402;-58
2024/01/10 07:12:53;;;;;;;22.50;14.55;;;;;;;;;;5032492;28;20844;-58
2024/01/10 07:15:19;;;;;;;21.33;14.48;;;;;;;;;;5032114;28;20044;-59
2024/01/10 07:17:45;;;;;;;22.67;13.40;;;;;;;;;;5033612;28;20117;-59
2024/01/10 07:20:12;;;;;;;17.27;11.60;;;;;;;;;;5034083;28;20101;-59
2024/01/10 07:22:43;;;;;;;19.35;12.70;;;;;;;;;;5032006;28;20041;-59
2024/01/10 07:25:10;;;;;;;18.23;12.73;;;;;;;;;;5033622;28;20495;-58
2024/01/10 07:27:39;;;;;;;17.88;12.18;;;;;;;;;;5010856;28;20300;-59
2024/01/10 07:30:13;;;;;;;22.88;13.93;;;;;;;;;;5030740;28;20102;-59
2024/01/10 07:32:40;;;;;;;20.70;13.70;;;;;;;;;;5031648;28;20148;-58
2024/01/10 07:35:09;;;;;;;24.10;15.90;;;;;;;;;;5028773;28;20060;-59
2024/01/10 07:37:35;;;;;;;21.33;14.25;;;;;;;;;;5031248;28;20040;-58
2024/01/10 07:40:01;;;;;;;21.83;14.68;;;;;;;;;;5033084;28;20387;-59
2024/01/10 07:42:27;;;;;;;18.65;12.45;;;;;;;;;;5032705;28;20061;-58
2024/01/10 07:44:53;;;;;;;19.20;12.52;;;;;;;;;;5034459;28;20048;-58
2024/01/10 07:47:19;;;;;;;18.17;12.20;;;;;;;;;;5034407;28;20041;-59
2024/01/10 07:49:45;;;;;;;18.33;13.00;;;;;;;;;;5034378;28;20045;-58
2024/01/10 07:52:11;;;;;;;21.63;13.88;;;;;;;;;;5028727;28;20029;-58
2024/01/10 07:54:37;;;;;;;22.83;15.43;;;;;;;;;;5028380;28;20721;-58
2024/01/10 07:57:03;;;;;;;31.48;18.83;;;;;;;;;;5029093;28;20055;-58
2024/01/10 07:59:29;;;;;;;26.33;16.02;;;;;;;;;;5029883;28;20136;-58
2024/01/10 08:01:59;;;;;;;25.50;15.90;;;;;;;;;;5030653;28;20187;-58
2024/01/10 08:04:26;;;;;;;25.48;15.40;;;;;;;;;;5032829;28;20066;-59
2024/01/10 08:06:52;;;;;;;22.13;13.63;;;;;;;;;;5029326;28;20048;-58
2024/01/10 08:09:19;;;;;;;22.85;14.65;;;;;;;;;;5030279;28;20049;-58
2024/01/10 08:11:45;;;;;;;27.17;16.40;;;;;;;;;;5029295;28;20161;-59
2024/01/10 08:14:11;;;;;;;25.92;15.20;;;;;;;;;;5029554;28;20037;-58
2024/01/10 08:16:37;;;;;;;26.83;15.68;;;;;;;;;;5030303;28;20040;-58
2024/01/10 08:19:03;;;;;;;26.83;16.10;;;;;;;;;;5030417;28;20102;-58
2024/01/10 08:21:29;;;;;;;28.15;16.48;;;;;;;;;;5031041;28;20494;-58
2024/01/10 08:23:55;;;;;;;26.70;15.20;;;;;;;;;;5034119;28;20483;-58
2024/01/10 08:26:21;;;;;;;24.67;15.98;;;;;;;;;;5035426;28;20036;-58
2024/01/10 08:28:47;;;;;;;25.88;15.60;;;;;;;;;;5035420;28;20037;-59
2024/01/10 08:31:16;;;;;;;24.20;15.93;;;;;;;;;;5033935;28;20329;-59
2024/01/10 08:33:42;;;;;;;27.85;16.17;;;;;;;;;;5038507;28;20410;-58
2024/01/10 08:36:12;;;;;;;29.77;17.88;;;;;;;;;;5029680;28;20038;-59
2024/01/10 08:38:38;;;;;;;28.77;16.30;;;;;;;;;;5030058;28;20049;-58
2024/01/10 08:41:05;;;;;;;28.95;16.05;;;;;;;;;;5029688;28;20049;-58
2024/01/10 08:43:30;;;;;;;33.17;15.95;;;;;;;;;;5032094;28;20037;-58
2024/01/10 08:46:00;;;;;;;32.10;16.50;;;;;;;;;;5042178;28;20044;-58
2024/01/10 08:48:26;;;;;;;29.60;16.17;;;;;;;;;;5048202;28;20033;-58
2024/01/10 08:50:55;;;;;;;29.92;16.25;;;;;;;;;;5040240;28;20556;-59
2024/01/10 08:53:21;;;;;;;28.65;16.70;;;;;;;;;;5037527;28;20052;-59
2024/01/10 08:55:48;;;;;;;28.52;15.50;;;;;;;;;;5038965;28;20044;-59
2024/01/10 08:58:14;;;;;;;29.90;15.65;;;;;;;;;;5045685;28;20090;-59
2024/01/10 09:00:40;;;;;;;33.50;16.48;;;;;;;;;;5039755;28;20076;-59
2024/01/10 09:03:07;;;;;;;29.70;15.07;;;;;;;;;;5045723;28;20037;-58
2024/01/10 09:05:33;;;;;;;31.58;15.70;;;;;;;;;;5043041;28;20041;-59
2024/01/10 09:08:00;;;;;;;26.05;14.02;;;;;;;;;;5031011;28;20112;-59
2024/01/10 09:10:27;;;;;;;32.00;14.57;;;;;;;;;;5033265;28;20076;-58
2024/01/10 09:12:53;;;;;;;24.95;12.05;;;;;;;;;;5043859;28;20460;-59
2024/01/10 09:15:19;;;;;;;25.73;13.63;;;;;;;;;;5041262;28;20047;-58
2024/01/10 09:17:45;;;;;;;26.20;11.77;;;;;;;;;;5043734;28;20469;-59
2024/01/10 09:20:12;;;;;;;20.23;11.20;;;;;;;;;;5042901;28;20047;-59
2024/01/10 09:22:39;;;;;;;22.65;12.00;;;;;;;;;;5044428;28;20717;-56
2024/01/10 09:25:05;;;;;;;24.90;11.45;;;;;;;;;;5041449;28;20102;-57
2024/01/10 09:27:34;;;;;;;26.98;12.05;;;;;;;;;;5044653;28;20049;-61
2024/01/10 09:30:08;;;;;;;20.23;9.27;;;;;;;;;;5042635;28;20516;-59
2024/01/10 09:32:37;;;;;;;23.45;11.52;;;;;;;;;;5045089;28;20057;-60
2024/01/10 09:35:04;;;;;;;20.02;9.43;;;;;;;;;;5044031;28;20091;-60
2024/01/10 09:37:30;;;;;;;21.23;11.30;;;;;;;;;;5044822;28;20055;-60
2024/01/10 09:39:56;;;;;;;25.10;11.52;;;;;;;;;;5045694;28;20059;-64
2024/01/10 09:42:25;;;;;;;24.63;11.40;;;;;;;;;;5045621;28;20056;-59
2024/01/10 09:44:52;;;;;;;18.92;11.02;;;;;;;;;;5039397;28;20048;-59
2024/01/10 09:47:20;;;;;;;22.60;11.00;;;;;;;;;;5040072;28;20051;-59
2024/01/10 09:49:46;;;;;;;20.52;10.57;;;;;;;;;;5044818;28;20440;-59
2024/01/10 09:52:17;;;;;;;22.65;11.35;;;;;;;;;;5039812;28;20037;-59
2024/01/10 09:54:46;;;;;;;24.50;11.30;;;;;;;;;;5042369;28;20037;-59
2024/01/10 09:57:13;;;;;;;22.80;11.73;;;;;;;;;;5040042;28;20053;-59
2024/01/10 09:59:39;;;;;;;20.00;10.10;;;;;;;;;;5045512;28;20520;-58
2024/01/10 10:02:05;;;;;;;21.67;9.52;;;;;;;;;;5029642;28;20037;-59
2024/01/10 10:04:31;;;;;;;21.25;10.23;;;;;;;;;;5045743;28;20040;-58
2024/01/10 10:07:01;;;;;;;19.40;10.85;;;;;;;;;;5045483;28;20157;-59
2024/01/10 10:09:27;;;;;;;19.10;9.35;;;;;;;;;;5044848;28;20115;-59
2024/01/10 10:11:59;;;;;;;23.15;11.02;;;;;;;;;;5046360;28;20365;-59
2024/01/10 10:14:28;;;;;;;14.48;7.63;;;;;;;;;;5038772;28;20403;-59
2024/01/10 10:16:54;;;;;;;20.13;10.15;;;;;;;;;;5046016;28;20055;-59
2024/01/10 10:19:24;;;;;;;18.67;8.93;;;;;;;;;;5046267;28;20491;-59
2024/01/10 10:21:50;;;;;;;22.95;12.02;;;;;;;;;;5046119;28;20049;-59
2024/01/10 10:24:17;;;;;;;19.73;10.40;;;;;;;;;;5043977;28;20048;-59
2024/01/10 10:26:43;;;;;;;23.42;11.00;;;;;;;;;;5040593;28;20045;-59
2024/01/10 10:29:09;;;;;;;20.58;10.23;;;;;;;;;;5043453;28;20041;-59
2024/01/10 10:31:36;;;;;;;23.58;10.55;;;;;;;;;;5044640;28;20045;-59
2024/01/10 10:34:02;;;;;;;26.10;12.10;;;;;;;;;;5044511;28;20444;-58
2024/01/10 10:36:31;;;;;;;22.15;11.27;;;;;;;;;;5035639;28;20475;-59
2024/01/10 10:39:01;;;;;;;20.52;10.52;;;;;;;;;;5025627;28;20041;-59
2024/01/10 10:41:28;;;;;;;20.73;10.73;;;;;;;;;;5037297;28;20045;-59
2024/01/10 10:43:55;;;;;;;22.13;10.48;;;;;;;;;;5035900;28;20044;-59
2024/01/10 10:46:23;;;;;;;20.75;10.88;;;;;;;;;;5035883;28;20525;-59
2024/01/10 10:48:49;;;;;;;20.00;9.63;;;;;;;;;;5043540;28;20413;-59
2024/01/10 10:51:23;;;;;;;21.52;10.70;;;;;;;;;;5039991;28;20512;-58
2024/01/10 10:53:50;;;;;;;18.40;9.13;;;;;;;;;;5030369;28;20048;-59
2024/01/10 10:56:16;;;;;;;23.13;11.00;;;;;;;;;;5040194;28;21384;-59
2024/01/10 10:58:44;;;;;;;19.48;10.27;;;;;;;;;;5033129;28;20257;-59
2024/01/10 11:01:12;;;;;;;18.65;9.95;;;;;;;;;;5032242;28;20044;-58
2024/01/10 11:03:40;;;;;;;18.60;9.45;;;;;;;;;;5030901;28;20060;-58
2024/01/10 11:06:06;;;;;;;19.10;9.57;;;;;;;;;;5032313;28;20051;-59
2024/01/10 11:08:34;;;;;;;20.25;9.57;;;;;;;;;;5033339;28;20422;-59
2024/01/10 11:11:01;;;;;;;20.30;9.45;;;;;;;;;;5040747;28;20132;-59
2024/01/10 11:13:28;;;;;;;16.40;9.30;;;;;;;;;;5030502;28;20033;-59
2024/01/10 11:15:54;;;;;;;18.00;9.43;;;;;;;;;;5028211;28;20041;-59
2024/01/10 11:18:26;;;;;;;19.15;9.65;;;;;;;;;;5029127;28;20581;-58
2024/01/10 11:20:55;;;;;;;19.65;9.98;;;;;;;;;;5030107;28;20035;-58
2024/01/10 11:23:34;;;;;;;18.73;9.85;;;;;;;;;;5031656;28;20038;-58
2024/01/10 11:26:00;;;;;;;19.35;8.90;;;;;;;;;;5036615;28;20034;-58
2024/01/10 11:28:27;;;;;;;17.92;8.93;;;;;;;;;;5034654;28;20479;-59
2024/01/10 11:30:56;;;;;;;17.77;9.25;;;;;;;;;;5031476;28;20051;-58
2024/01/10 11:33:26;;;;;;;19.52;10.98;;;;;;;;;;5027110;28;20482;-58
2024/01/10 11:36:12;;;;;;;16.00;9.35;;;;;;;;;;5025643;28;20166;-59
2024/01/10 11:38:44;;;;;;;14.25;8.02;;;;;;;;;;5041121;28;20132;-59
2024/01/10 11:41:15;;;;;;;13.48;7.75;;;;;;;;;;5035510;28;20029;-59
2024/01/10 11:43:41;;;;;;;17.67;9.65;;;;;;;;;;5033937;28;20506;-59
2024/01/10 11:46:08;;;;;;;18.95;9.18;;;;;;;;;;5034202;28;20598;-59
2024/01/10 11:48:35;;;;;;;16.08;8.95;;;;;;;;;;5040688;28;20529;-59
2024/01/10 11:51:01;;;;;;;15.18;8.20;;;;;;;;;;5041954;28;20124;-60
2024/01/10 11:53:45;;;;;;;15.05;7.90;;;;;;;;;;5027612;28;20045;-59
2024/01/10 11:56:16;;;;;;;14.93;8.10;;;;;;;;;;5038753;28;20120;-58
2024/01/10 11:59:16;;;;;;;16.98;9.07;;;;;;;;;;5038493;28;20072;-58
2024/01/10 12:01:42;;;;;;;16.52;9.50;;;;;;;;;;4980521;28;20573;-59
2024/01/10 12:04:09;;;;;;;16.30;9.20;;;;;;;;;;5028335;28;20506;-58
2024/01/10 12:06:36;;;;;;;13.63;7.93;;;;;;;;;;5032972;28;20045;-58
2024/01/10 12:09:04;;;;;;;16.52;9.35;;;;;;;;;;5036833;28;20064;-59
2024/01/10 12:11:30;;;;;;;18.50;8.77;;;;;;;;;;5036176;28;20067;-59
2024/01/10 12:13:58;;;;;;;14.57;8.45;;;;;;;;;;5036892;28;20043;-59
2024/01/10 12:16:24;;;;;;;16.08;9.07;;;;;;;;;;5033402;28;20045;-59
2024/01/10 12:18:51;;;;;;;14.30;8.50;;;;;;;;;;5038891;28;20511;-59
2024/01/10 12:21:17;;;;;;;16.90;10.20;;;;;;;;;;5033706;28;20141;-59
2024/01/10 12:23:43;;;;;;;14.82;8.50;;;;;;;;;;5037450;28;20050;-59
2024/01/10 12:26:12;;;;;;;15.52;7.95;;;;;;;;;;5035946;28;20037;-58
2024/01/10 12:28:39;;;;;;;14.55;8.13;;;;;;;;;;5043169;28;20256;-58
2024/01/10 12:31:07;;;;;;;15.50;8.25;;;;;;;;;;5043639;28;20044;-58
2024/01/10 12:33:33;;;;;;;14.80;8.27;;;;;;;;;;5036925;28;20041;-59
2024/01/10 12:36:09;;;;;;;13.13;7.45;;;;;;;;;;5038326;28;20032;-59
2024/01/10 12:38:35;;;;;;;19.17;9.88;;;;;;;;;;5036540;28;20058;-59
2024/01/10 12:41:02;;;;;;;18.70;9.73;;;;;;;;;;5037590;28;20037;-59
2024/01/10 12:43:28;;;;;;;14.23;8.10;;;;;;;;;;5040783;28;20529;-59
2024/01/10 12:46:13;;;;;;;15.85;7.55;;;;;;;;;;5040807;28;20056;-59
2024/01/10 12:48:41;;;;;;;14.00;8.20;;;;;;;;;;5040715;28;20045;-58
2024/01/10 12:51:10;;;;;;;14.15;7.60;;;;;;;;;;5035083;28;20037;-60
2024/01/10 12:53:45;;;;;;;14.20;7.65;;;;;;;;;;5017878;28;20243;-59
2024/01/10 12:56:13;;;;;;;14.00;7.65;;;;;;;;;;5033646;28;20506;-59
2024/01/10 12:58:40;;;;;;;16.30;8.32;;;;;;;;;;5034048;28;20100;-59
2024/01/10 13:01:06;;;;;;;16.02;8.77;;;;;;;;;;5036905;28;20725;-59
2024/01/10 13:03:32;;;;;;;18.42;9.18;;;;;;;;;;5036859;28;20042;-60
2024/01/10 13:05:58;;;;;;;16.73;8.48;;;;;;;;;;5041844;28;20087;-59
2024/01/10 13:08:24;;;;;;;12.57;7.60;;;;;;;;;;5045159;28;20049;-59
2024/01/10 13:10:50;;;;;;;16.88;8.43;;;;;;;;;;5046421;28;20049;-59
2024/01/10 13:13:21;;;;;;;15.40;8.57;;;;;;;;;;5045231;28;20047;-58
2024/01/10 13:15:47;;;;;;;13.18;7.85;;;;;;;;;;5040088;28;20435;-59
2024/01/10 13:18:15;;;;;;;16.77;8.40;;;;;;;;;;5026922;28;20518;-59
2024/01/10 13:20:41;;;;;;;14.52;8.10;;;;;;;;;;5030108;28;20056;-59
2024/01/10 13:23:07;;;;;;;14.85;8.25;;;;;;;;;;5045696;28;20041;-59
2024/01/10 13:25:33;;;;;;;12.55;7.28;;;;;;;;;;5041470;28;20043;-59
2024/01/10 13:28:00;;;;;;;15.27;8.50;;;;;;;;;;5041561;28;20048;-59
2024/01/10 13:30:26;;;;;;;13.07;7.20;;;;;;;;;;5043947;28;20053;-59
2024/01/10 13:32:52;;;;;;;15.70;7.65;;;;;;;;;;5044181;28;20427;-59
2024/01/10 13:35:19;;;;;;;12.85;7.60;;;;;;;;;;5042731;28;20072;-59
2024/01/10 13:37:48;;;;;;;12.18;6.95;;;;;;;;;;5046189;28;20133;-58
2024/01/10 13:40:14;;;;;;;12.60;6.88;;;;;;;;;;5035924;28;20037;-59
2024/01/10 13:42:40;;;;;;;14.90;7.95;;;;;;;;;;5039535;28;20120;-59
2024/01/10 13:45:07;;;;;;;13.05;7.70;;;;;;;;;;5036480;28;20129;-59
2024/01/10 13:47:34;;;;;;;15.07;8.48;;;;;;;;;;5034270;28;20465;-59
2024/01/10 13:50:00;;;;;;;15.80;8.88;;;;;;;;;;5042005;28;20102;-58
2024/01/10 13:52:26;;;;;;;16.48;7.88;;;;;;;;;;5034548;28;20033;-59
2024/01/10 13:54:52;;;;;;;16.15;8.50;;;;;;;;;;5037258;28;20446;-59
2024/01/10 13:57:18;;;;;;;12.25;7.20;;;;;;;;;;5045764;28;20044;-59
2024/01/10 13:59:44;;;;;;;14.75;7.78;;;;;;;;;;5040351;28;20044;-59
2024/01/10 14:02:11;;;;;;;13.50;7.18;;;;;;;;;;5038513;28;20099;-59
2024/01/10 14:04:37;;;;;;;14.48;8.35;;;;;;;;;;5043418;28;20041;-59
2024/01/10 14:07:04;;;;;;;16.20;8.23;;;;;;;;;;5043705;28;20446;-59
2024/01/10 14:09:31;;;;;;;13.30;7.88;;;;;;;;;;5040539;28;20108;-59
2024/01/10 14:11:57;;;;;;;15.07;7.90;;;;;;;;;;5044681;28;20041;-59
2024/01/10 14:14:23;;;;;;;13.95;7.70;;;;;;;;;;5031470;28;20069;-59
2024/01/10 14:16:49;;;;;;;15.55;8.38;;;;;;;;;;5044843;28;20505;-59
2024/01/10 14:19:17;;;;;;;13.82;7.80;;;;;;;;;;5045353;28;20564;-59
2024/01/10 14:21:43;;;;;;;13.93;7.55;;;;;;;;;;5045058;28;20037;-59